Time;durP1;ratioP1;P1;durP2;ratioP2;P2;SDS_P1;SDS_P2;PMS_P1;PMS_P2;Temp;Humidity;BMP_temperature;BMP_pressure;BME280_temperature;BME280_humidity;BME280_pressure;Samples;Min_cycle;Max_cycle;Signal;HPM_P1;HPM_P2
2021/07/07 00:00:07;;;;;;;20.65;8.73;;;;;;;13.06;100.00;101056.00;5067430;28;20413;-68
2021/07/07 00:02:32;;;;;;;20.85;9.02;;;;;;;13.03;100.00;101049.81;5062224;28;20027;-68
2021/07/07 00:04:58;;;;;;;23.95;9.30;;;;;;;13.00;100.00;101060.44;5064078;28;20098;-67
2021/07/07 00:07:23;;;;;;;22.50;9.40;;;;;;;12.91;100.00;101059.53;5064486;28;20115;-67
2021/07/07 00:09:49;;;;;;;23.88;9.25;;;;;;;12.86;100.00;101058.69;5066636;28;20100;-68
2021/07/07 00:12:14;;;;;;;23.10;9.45;;;;;;;12.88;100.00;101059.56;5064223;28;20021;-66
2021/07/07 00:14:39;;;;;;;23.10;9.55;;;;;;;12.81;100.00;101049.84;5066632;28;20055;-68
2021/07/07 00:17:05;;;;;;;23.50;9.15;;;;;;;12.80;100.00;101056.06;5063532;28;20416;-68
2021/07/07 00:19:30;;;;;;;23.40;9.40;;;;;;;12.80;100.00;101053.41;5066419;28;20028;-68
2021/07/07 00:21:58;;;;;;;24.50;9.30;;;;;;;12.78;100.00;101049.84;5067845;28;20017;-68
2021/07/07 00:24:24;;;;;;;22.15;8.95;;;;;;;12.75;100.00;101047.19;5062539;28;20024;-67
2021/07/07 00:26:50;;;;;;;22.40;9.45;;;;;;;12.68;100.00;101045.44;5065321;28;20040;-68
2021/07/07 00:29:16;;;;;;;22.20;9.15;;;;;;;12.70;100.00;101041.91;5065332;28;20380;-67
2021/07/07 00:31:41;;;;;;;22.60;8.77;;;;;;;12.66;100.00;101041.91;5067816;28;20066;-68
2021/07/07 00:34:06;;;;;;;23.13;9.77;;;;;;;12.61;100.00;101046.34;5064704;28;20099;-68
2021/07/07 00:36:32;;;;;;;23.20;9.80;;;;;;;12.60;100.00;101049.88;5067414;28;20067;-67
2021/07/07 00:38:57;;;;;;;24.38;9.60;;;;;;;12.58;100.00;101044.56;5062762;28;20094;-67
2021/07/07 00:41:22;;;;;;;22.27;9.38;;;;;;;12.59;100.00;101040.16;5065264;28;20024;-67
2021/07/07 00:43:48;;;;;;;23.58;9.63;;;;;;;12.56;100.00;101046.34;5068686;28;20041;-68
2021/07/07 00:46:13;;;;;;;22.58;9.43;;;;;;;12.56;100.00;101055.16;5067760;28;20036;-68
2021/07/07 00:48:38;;;;;;;24.17;10.02;;;;;;;12.49;100.00;101056.06;5068110;28;20159;-68
2021/07/07 00:51:04;;;;;;;23.33;9.55;;;;;;;12.44;100.00;101044.59;5068760;28;20476;-68
2021/07/07 00:53:31;;;;;;;24.55;10.13;;;;;;;12.46;100.00;101045.44;5068174;28;20020;-68
2021/07/07 00:55:58;;;;;;;23.23;9.68;;;;;;;12.41;100.00;101052.53;5068808;28;20031;-68
2021/07/07 00:58:26;;;;;;;22.63;9.90;;;;;;;12.39;100.00;101051.63;5067197;28;20095;-67
2021/07/07 01:00:52;;;;;;;23.63;9.65;;;;;;;12.36;100.00;101051.63;5066024;28;20044;-68
2021/07/07 01:03:17;;;;;;;22.95;10.00;;;;;;;12.37;100.00;101050.75;5065274;28;20112;-68
2021/07/07 01:05:43;;;;;;;23.67;9.80;;;;;;;12.36;100.00;101047.25;5053344;28;20379;-67
2021/07/07 01:08:08;;;;;;;22.83;10.38;;;;;;;12.37;100.00;101059.59;5066168;28;20064;-67
2021/07/07 01:10:33;;;;;;;23.77;10.25;;;;;;;12.32;100.00;101050.78;5067700;28;20040;-68
2021/07/07 01:12:59;;;;;;;24.73;9.90;;;;;;;12.33;100.00;101056.94;5070482;28;20376;-67
2021/07/07 01:15:24;;;;;;;23.92;10.20;;;;;;;12.33;100.00;101051.63;5067079;28;20108;-67
2021/07/07 01:17:50;;;;;;;23.42;9.43;;;;;;;12.33;100.00;101052.56;5071285;28;20497;-67
2021/07/07 01:20:23;;;;;;;23.08;9.85;;;;;;;12.31;100.00;101058.72;5067772;28;20020;-67
2021/07/07 01:22:50;;;;;;;23.50;9.45;;;;;;;12.36;100.00;101051.63;5065268;28;20025;-66
2021/07/07 01:25:16;;;;;;;21.80;9.23;;;;;;;12.33;100.00;101046.34;5069765;28;20139;-67
2021/07/07 01:27:43;;;;;;;22.65;8.95;;;;;;;12.33;100.00;101046.34;5068282;28;20033;-68
2021/07/07 01:30:23;;;;;;;22.77;9.57;;;;;;;12.35;100.00;101056.06;5052054;28;20025;-67
2021/07/07 01:32:50;;;;;;;23.05;9.63;;;;;;;12.46;100.00;101050.75;5067077;28;20371;-67
2021/07/07 01:35:17;;;;;;;21.77;9.20;;;;;;;12.51;100.00;101049.00;5049280;28;20372;-68
2021/07/07 01:37:44;;;;;;;21.98;9.25;;;;;;;12.60;100.00;101050.75;5048633;28;20411;-68
2021/07/07 01:40:12;;;;;;;24.80;8.73;;;;;;;12.73;100.00;101052.50;5065815;28;20032;-68
2021/07/07 01:42:38;;;;;;;21.50;8.68;;;;;;;12.73;100.00;101052.50;5068364;28;20044;-67
2021/07/07 01:45:06;;;;;;;21.85;8.75;;;;;;;12.78;100.00;101052.50;5066773;28;20036;-68
2021/07/07 01:47:31;;;;;;;23.77;8.85;;;;;;;12.79;100.00;101045.44;5066988;28;20032;-67
2021/07/07 01:49:57;;;;;;;21.60;8.80;;;;;;;12.77;100.00;101041.91;5066510;28;20027;-67
2021/07/07 01:52:22;;;;;;;19.88;8.25;;;;;;;12.76;100.00;101041.03;5063022;28;20468;-66
2021/07/07 01:54:47;;;;;;;22.75;9.02;;;;;;;12.74;100.00;101042.78;5066563;28;20528;-66
2021/07/07 01:57:13;;;;;;;22.45;9.00;;;;;;;12.79;100.00;101040.16;5067261;28;20024;-66
2021/07/07 01:59:38;;;;;;;21.20;8.60;;;;;;;12.83;100.00;101050.75;5067670;28;20073;-66
2021/07/07 02:02:03;;;;;;;21.85;8.75;;;;;;;12.81;100.00;101055.16;5066530;28;20055;-66
2021/07/07 02:04:29;;;;;;;23.23;8.95;;;;;;;12.75;100.00;101044.56;5067597;28;20032;-67
2021/07/07 02:06:54;;;;;;;24.10;9.60;;;;;;;12.75;100.00;101049.84;5067296;28;20375;-68
2021/07/07 02:09:19;;;;;;;26.55;9.15;;;;;;;12.70;100.00;101047.22;5069188;28;20031;-67
2021/07/07 02:11:47;;;;;;;22.30;9.32;;;;;;;12.73;100.00;101051.63;5066568;28;20527;-67
2021/07/07 02:14:13;;;;;;;23.05;9.07;;;;;;;12.64;100.00;101047.22;5069851;28;20541;-66
2021/07/07 02:16:38;;;;;;;22.83;9.05;;;;;;;12.61;100.00;101046.34;5066342;28;20372;-66
2021/07/07 02:19:03;;;;;;;22.95;9.52;;;;;;;12.58;100.00;101049.00;5066457;28;20025;-67
2021/07/07 02:21:29;;;;;;;24.10;9.15;;;;;;;12.52;100.00;101048.13;5066755;28;20099;-69
2021/07/07 02:23:56;;;;;;;21.20;8.93;;;;;;;12.52;100.00;101055.19;5068416;28;20063;-67
2021/07/07 02:26:21;;;;;;;22.92;8.90;;;;;;;12.55;100.00;101057.81;5067566;28;20029;-66
2021/07/07 02:28:47;;;;;;;22.80;9.00;;;;;;;12.55;100.00;101053.41;5068708;28;20055;-67
2021/07/07 02:31:12;;;;;;;22.10;8.93;;;;;;;12.58;100.00;101047.22;5065166;28;20078;-67
2021/07/07 02:33:37;;;;;;;23.15;9.30;;;;;;;12.63;100.00;101044.59;5068478;28;20074;-66
2021/07/07 02:36:03;;;;;;;25.27;10.00;;;;;;;12.68;100.00;101045.44;5065960;28;20077;-67
2021/07/07 02:38:29;;;;;;;22.00;9.32;;;;;;;12.69;100.00;101049.88;5065528;28;20021;-66
2021/07/07 02:40:55;;;;;;;22.40;9.38;;;;;;;12.66;100.00;101057.84;5065998;28;20129;-66
2021/07/07 02:43:20;;;;;;;23.23;9.63;;;;;;;12.62;100.00;101048.09;5066595;28;20040;-67
2021/07/07 02:45:46;;;;;;;22.98;9.48;;;;;;;12.58;100.00;101055.16;5065091;28;20076;-68
2021/07/07 02:48:13;;;;;;;22.88;9.57;;;;;;;12.54;100.00;101056.09;5065255;28;20115;-67
2021/07/07 02:50:39;;;;;;;23.55;9.93;;;;;;;12.50;100.00;101052.53;5065597;28;20490;-66
2021/07/07 02:53:07;;;;;;;21.88;9.43;;;;;;;12.50;100.00;101055.19;5064097;28;20039;-68
2021/07/07 02:55:32;;;;;;;23.48;9.77;;;;;;;12.46;100.00;101053.41;5067522;28;20498;-68
2021/07/07 03:00:28;;;;;;;22.60;9.65;;;;;;;12.35;100.00;101056.06;5061842;28;20024;-66
2021/07/07 03:02:53;;;;;;;23.55;9.77;;;;;;;12.33;100.00;101046.34;5070339;28;20642;-67
2021/07/07 03:05:19;;;;;;;23.73;10.27;;;;;;;12.29;100.00;101052.53;5067268;28;20120;-67
2021/07/07 03:07:44;;;;;;;22.77;10.05;;;;;;;12.28;100.00;101048.13;5046814;28;20471;-66
2021/07/07 03:10:11;;;;;;;22.33;9.93;;;;;;;12.24;100.00;101049.00;5064970;28;20075;-69
2021/07/07 03:12:37;;;;;;;25.05;10.73;;;;;;;12.19;100.00;101049.88;5063947;28;20021;-66
2021/07/07 03:15:04;;;;;;;28.02;10.52;;;;;;;12.16;100.00;101055.16;5066596;28;20031;-68
2021/07/07 03:17:30;;;;;;;24.67;10.80;;;;;;;12.10;100.00;101056.91;5065293;28;20476;-67
2021/07/07 03:19:55;;;;;;;24.75;10.77;;;;;;;12.12;100.00;101057.81;5065972;28;20046;-68
2021/07/07 03:22:20;;;;;;;23.65;10.80;;;;;;;12.12;100.00;101058.69;5064322;28;20475;-67
2021/07/07 03:24:46;;;;;;;23.92;10.73;;;;;;;12.02;100.00;101063.09;5066181;28;20025;-68
2021/07/07 03:27:12;;;;;;;26.15;11.02;;;;;;;11.98;100.00;101063.97;5064846;28;20061;-68
2021/07/07 03:29:37;;;;;;;25.52;10.95;;;;;;;12.02;100.00;101064.88;5065272;28;20483;-68
2021/07/07 03:32:03;;;;;;;24.02;10.80;;;;;;;11.98;100.00;101061.31;5066180;28;20074;-68
2021/07/07 03:34:28;;;;;;;25.08;11.43;;;;;;;12.00;100.00;101066.66;5067489;28;20029;-68
2021/07/07 03:36:53;;;;;;;24.25;11.38;;;;;;;12.01;100.00;101074.59;5064885;28;20041;-68
2021/07/07 03:39:19;;;;;;;26.05;11.32;;;;;;;12.03;100.00;101078.13;5064663;28;20029;-68
2021/07/07 03:41:44;;;;;;;24.90;11.52;;;;;;;12.17;100.00;101078.16;5064713;28;20048;-68
2021/07/07 03:44:09;;;;;;;25.10;11.60;;;;;;;12.21;100.00;101076.38;5066124;28;20031;-68
2021/07/07 03:46:35;;;;;;;25.35;11.45;;;;;;;12.25;100.00;101079.94;5066248;28;20040;-68
2021/07/07 03:49:00;;;;;;;24.92;11.52;;;;;;;12.28;100.00;101087.88;5063863;28;20432;-68
2021/07/07 03:51:25;;;;;;;24.75;11.43;;;;;;;12.28;100.00;101088.75;5063986;28;20033;-68
2021/07/07 03:53:51;;;;;;;25.15;11.20;;;;;;;12.28;100.00;101086.09;5065201;28;20460;-66
2021/07/07 03:56:16;;;;;;;26.40;12.20;;;;;;;12.27;100.00;101091.41;5065161;28;20082;-66
2021/07/07 03:58:41;;;;;;;26.05;11.63;;;;;;;12.26;100.00;101086.97;5065160;28;20151;-68
2021/07/07 04:01:07;;;;;;;25.63;11.45;;;;;;;12.23;100.00;101087.84;5065357;28;20059;-68
2021/07/07 04:03:32;;;;;;;26.52;11.73;;;;;;;12.20;100.00;101094.06;5064343;28;20024;-67
2021/07/07 04:05:57;;;;;;;29.05;11.75;;;;;;;12.22;100.00;101094.06;5067392;28;20028;-67
2021/07/07 04:08:22;;;;;;;27.35;11.85;;;;;;;12.21;100.00;101095.81;5064199;28;20032;-68
2021/07/07 04:10:48;;;;;;;27.05;12.18;;;;;;;12.21;100.00;101093.16;5064298;28;20029;-67
2021/07/07 04:13:13;;;;;;;27.40;12.50;;;;;;;12.20;100.00;101094.06;5066374;28;20432;-70
2021/07/07 04:15:39;;;;;;;27.05;12.50;;;;;;;12.21;100.00;101105.53;5065515;28;20025;-68
2021/07/07 04:18:05;;;;;;;28.48;12.65;;;;;;;12.23;100.00;101108.19;5068219;28;20029;-69
2021/07/07 04:20:30;;;;;;;28.33;12.55;;;;;;;12.20;100.00;101120.56;5068900;28;20574;-68
2021/07/07 04:22:56;;;;;;;28.40;12.48;;;;;;;12.24;100.00;101120.56;5070108;28;20021;-65
2021/07/07 04:25:21;;;;;;;27.88;12.32;;;;;;;12.30;100.00;101109.97;5072429;28;20036;-68
2021/07/07 04:27:47;;;;;;;28.42;12.90;;;;;;;12.37;100.00;101111.75;5071319;28;20031;-68
2021/07/07 04:30:16;;;;;;;27.42;12.68;;;;;;;12.53;100.00;101123.25;5071410;28;20425;-68
2021/07/07 04:32:41;;;;;;;26.35;11.90;;;;;;;12.64;100.00;101125.88;5070502;28;20483;-68
2021/07/07 04:35:08;;;;;;;27.27;12.20;;;;;;;12.78;100.00;101124.13;5068160;28;20075;-68
2021/07/07 04:37:33;;;;;;;28.65;12.05;;;;;;;12.86;100.00;101126.78;5064418;28;20023;-68
2021/07/07 04:39:59;;;;;;;28.08;12.30;;;;;;;12.95;100.00;101112.63;5067827;28;20461;-68
2021/07/07 04:42:24;;;;;;;26.58;12.05;;;;;;;13.03;100.00;101113.50;5052908;28;20055;-66
2021/07/07 04:44:49;;;;;;;26.55;11.95;;;;;;;13.14;100.00;101119.66;5068287;28;20064;-66
2021/07/07 04:47:15;;;;;;;28.75;11.93;;;;;;;13.22;100.00;101125.84;5068035;28;20414;-68
2021/07/07 04:49:40;;;;;;;29.08;11.85;;;;;;;13.27;100.00;101132.94;5068044;28;20020;-68
2021/07/07 04:52:05;;;;;;;26.20;11.50;;;;;;;13.31;100.00;101129.34;5068047;28;20104;-68
2021/07/07 04:54:34;;;;;;;27.23;11.45;;;;;;;13.35;100.00;101131.16;5071740;28;20020;-68
2021/07/07 04:56:59;;;;;;;27.75;12.00;;;;;;;13.40;100.00;101134.69;5067522;28;20045;-68
2021/07/07 04:59:25;;;;;;;26.58;11.57;;;;;;;13.40;100.00;101127.59;5067739;28;20071;-67
2021/07/07 05:01:50;;;;;;;26.80;11.73;;;;;;;13.40;100.00;101126.72;5067868;28;20083;-68
2021/07/07 05:04:15;;;;;;;27.88;11.90;;;;;;;13.37;100.00;101129.41;5068178;28;20024;-69
2021/07/07 05:06:41;;;;;;;29.20;11.57;;;;;;;13.34;100.00;101135.59;5068946;28;20423;-68
2021/07/07 05:09:06;;;;;;;27.38;11.18;;;;;;;13.34;100.00;101139.97;5066891;28;20097;-68
2021/07/07 05:11:31;;;;;;;29.20;11.90;;;;;;;13.39;100.00;101143.53;5066608;28;20099;-62
2021/07/07 05:13:57;;;;;;;30.55;11.60;;;;;;;13.47;100.00;101148.81;5068926;28;20064;-64
2021/07/07 05:16:22;;;;;;;27.77;11.57;;;;;;;13.56;100.00;101143.50;5068040;28;20040;-63
2021/07/07 05:18:48;;;;;;;26.17;10.60;;;;;;;13.65;100.00;101142.59;5049655;28;20197;-63
2021/07/07 05:21:13;;;;;;;27.50;13.13;;;;;;;13.74;100.00;101145.19;5066908;28;20476;-61
2021/07/07 05:23:39;;;;;;;28.27;11.07;;;;;;;13.85;100.00;101154.03;5064821;28;20036;-62
2021/07/07 05:26:05;;;;;;;29.65;11.10;;;;;;;13.98;100.00;101153.94;5066413;28;20060;-62
2021/07/07 05:28:30;;;;;;;26.17;11.05;;;;;;;14.14;100.00;101153.00;5069962;28;20060;-64
2021/07/07 05:31:03;;;;;;;25.63;10.13;;;;;;;14.26;100.00;101152.91;5066911;28;20025;-64
2021/07/07 05:33:34;;;;;;;;;;;;;;;14.36;100.00;101151.09;5064253;28;20086;-66
2021/07/07 05:36:00;;;;;;;26.73;10.63;;;;;;;14.45;100.00;101159.00;5066325;28;19916;-64
2021/07/07 05:38:26;;;;;;;25.58;9.90;;;;;;;14.54;100.00;101154.53;5067897;28;20032;-64
2021/07/07 05:40:51;;;;;;;25.75;9.80;;;;;;;14.59;99.34;101152.69;5067774;28;20371;-62
2021/07/07 05:43:16;;;;;;;25.80;10.30;;;;;;;14.70;98.07;101160.63;5067254;28;20053;-61
2021/07/07 05:45:42;;;;;;;27.67;9.95;;;;;;;14.77;96.57;101157.91;5067832;28;20024;-63
2021/07/07 05:48:07;;;;;;;26.77;9.63;;;;;;;14.80;94.40;101155.22;5067992;28;20032;-62
2021/07/07 05:50:32;;;;;;;27.08;9.63;;;;;;;14.74;95.27;101162.38;5066471;28;20021;-63
2021/07/07 05:52:58;;;;;;;24.40;10.00;;;;;;;14.66;97.27;101154.44;5067167;28;20027;-62
2021/07/07 05:55:24;;;;;;;27.90;10.20;;;;;;;14.56;97.41;101169.56;5066559;28;20132;-63
2021/07/07 05:57:50;;;;;;;25.05;9.60;;;;;;;14.58;95.72;101172.22;5066330;28;20029;-64
2021/07/07 06:00:22;;;;;;;27.23;9.85;;;;;;;14.47;97.21;101172.28;5066836;28;20087;-63
2021/07/07 06:02:48;;;;;;;25.58;9.70;;;;;;;14.48;96.68;101172.28;5066258;28;20048;-64
2021/07/07 06:05:14;;;;;;;24.65;9.65;;;;;;;14.57;95.57;101181.09;5066674;28;20063;-64
2021/07/07 06:07:41;;;;;;;27.98;10.52;;;;;;;14.66;97.78;101174.84;5066642;28;20139;-66
2021/07/07 06:10:08;;;;;;;25.17;10.18;;;;;;;14.71;94.18;101175.69;5066839;28;20051;-63
2021/07/07 06:12:34;;;;;;;26.70;10.23;;;;;;;14.77;94.44;101186.31;5064413;28;20039;-63
2021/07/07 06:15:00;;;;;;;27.23;10.50;;;;;;;14.82;94.98;101176.50;5068925;28;20095;-64
2021/07/07 06:17:25;;;;;;;26.27;10.30;;;;;;;14.87;95.92;101173.78;5066038;28;20370;-63
2021/07/07 06:19:51;;;;;;;28.15;10.65;;;;;;;14.95;93.43;101183.47;5065829;28;20021;-63
2021/07/07 06:22:17;;;;;;;28.88;10.70;;;;;;;15.01;92.64;101198.53;5064885;28;20115;-64
2021/07/07 06:24:42;;;;;;;24.27;10.13;;;;;;;15.11;93.63;101184.22;5067050;28;20107;-65
2021/07/07 06:27:08;;;;;;;26.40;10.25;;;;;;;15.14;90.01;101186.00;5067021;28;20364;-63
2021/07/07 06:29:33;;;;;;;28.65;10.43;;;;;;;15.22;90.96;101192.13;5068107;28;20384;-62
2021/07/07 06:31:58;;;;;;;25.60;10.00;;;;;;;15.28;89.81;101191.19;5065881;28;20474;-64
2021/07/07 06:34:24;;;;;;;23.58;9.32;;;;;;;15.31;91.02;101197.38;5065169;28;20024;-65
2021/07/07 06:36:49;;;;;;;26.27;9.70;;;;;;;15.38;89.83;101192.88;5065256;28;20039;-65
2021/07/07 06:39:14;;;;;;;25.30;9.25;;;;;;;15.47;90.18;101197.22;5050841;28;20100;-64
2021/07/07 06:41:40;;;;;;;24.60;9.07;;;;;;;15.56;88.21;101191.78;5068165;28;20084;-65
2021/07/07 06:44:05;;;;;;;24.52;8.77;;;;;;;15.66;87.96;101193.44;5065673;28;20387;-65
2021/07/07 06:46:31;;;;;;;24.40;9.20;;;;;;;15.69;89.17;101188.09;5068945;28;20032;-65
2021/07/07 06:48:57;;;;;;;26.63;8.75;;;;;;;15.79;86.80;101204.03;5064567;28;20028;-62
2021/07/07 06:51:22;;;;;;;23.95;8.30;;;;;;;15.89;84.50;101207.44;5064497;28;20383;-62
2021/07/07 06:53:48;;;;;;;23.98;8.15;;;;;;;15.96;86.03;101203.78;5066073;28;20104;-62
2021/07/07 06:56:13;;;;;;;22.98;8.00;;;;;;;16.07;84.62;101206.34;5065654;28;20029;-62
2021/07/07 06:58:39;;;;;;;25.10;8.35;;;;;;;16.09;84.64;101201.88;5064659;28;20025;-62
2021/07/07 07:01:04;;;;;;;25.10;8.10;;;;;;;16.14;84.12;101216.03;5069621;28;20040;-63
2021/07/07 07:03:29;;;;;;;26.42;7.78;;;;;;;16.22;82.30;101219.47;5064456;28;20061;-61
2021/07/07 07:05:55;;;;;;;22.95;8.00;;;;;;;16.27;80.19;101212.28;5066404;28;20029;-65
2021/07/07 07:08:20;;;;;;;24.15;7.78;;;;;;;16.31;82.11;101232.69;5067082;28;20025;-65
2021/07/07 07:10:46;;;;;;;26.60;7.97;;;;;;;16.48;83.08;101216.44;5065257;28;20025;-64
2021/07/07 07:13:12;;;;;;;23.02;7.10;;;;;;;16.63;79.60;101226.03;5066580;28;20062;-64
2021/07/07 07:15:38;;;;;;;23.25;7.47;;;;;;;16.73;78.38;101232.09;5066404;28;20379;-65
2021/07/07 07:18:03;;;;;;;22.67;7.53;;;;;;;16.80;79.26;101227.56;5064514;28;20037;-63
2021/07/07 07:20:30;;;;;;;25.85;7.10;;;;;;;16.87;78.28;101234.56;5064749;28;20025;-64
2021/07/07 07:22:59;;;;;;;23.98;7.18;;;;;;;16.93;76.13;101237.16;5067816;28;20047;-62
2021/07/07 07:25:24;;;;;;;21.90;6.60;;;;;;;16.99;75.73;101236.19;5065548;28;20032;-62
2021/07/07 07:27:49;;;;;;;24.85;7.25;;;;;;;17.15;77.91;101236.81;5066065;28;20156;-62
2021/07/07 07:30:15;;;;;;;22.92;7.00;;;;;;;17.31;76.73;101238.31;5065579;28;20099;-62
2021/07/07 07:32:41;;;;;;;23.27;6.93;;;;;;;17.39;75.59;101247.09;5066934;28;20025;-63
2021/07/07 07:35:07;;;;;;;22.92;6.80;;;;;;;17.43;73.38;101255.94;5064945;28;20017;-64
2021/07/07 07:37:38;;;;;;;22.58;6.57;;;;;;;17.43;72.33;101254.16;5061245;28;20059;-65
2021/07/07 07:40:10;;;;;;;22.97;6.20;;;;;;;17.52;73.95;101254.91;5067765;28;20131;-65
2021/07/07 07:42:39;;;;;;;24.58;6.78;;;;;;;17.63;71.34;101252.88;5043967;28;20052;-65
2021/07/07 07:45:05;;;;;;;21.60;6.32;;;;;;;17.72;72.49;101260.75;5061574;28;20067;-65
2021/07/07 07:47:30;;;;;;;22.00;6.20;;;;;;;17.74;70.31;101272.28;5065163;28;20057;-65
2021/07/07 07:49:56;;;;;;;23.95;6.53;;;;;;;17.78;71.80;101255.28;5064436;28;20471;-65
2021/07/07 07:52:21;;;;;;;20.63;5.72;;;;;;;17.83;69.26;101259.66;5062806;28;20028;-65
2021/07/07 07:54:46;;;;;;;20.85;6.05;;;;;;;17.86;68.54;101262.28;5065759;28;20027;-65
2021/07/07 07:57:12;;;;;;;21.98;5.90;;;;;;;17.88;66.63;101258.69;5063694;28;20021;-62
2021/07/07 07:59:37;;;;;;;21.08;5.78;;;;;;;17.98;69.54;101254.03;5063580;28;20032;-63
2021/07/07 08:02:03;;;;;;;24.00;6.10;;;;;;;18.09;67.69;101260.06;5063972;28;20021;-63
2021/07/07 08:04:28;;;;;;;24.00;6.00;;;;;;;18.18;67.95;101255.44;5065059;28;20024;-62
2021/07/07 08:06:53;;;;;;;20.77;6.13;;;;;;;18.29;66.92;101250.75;5065035;28;20032;-63
2021/07/07 08:09:19;;;;;;;21.38;5.95;;;;;;;18.43;66.80;101255.78;5065741;28;20028;-63
2021/07/07 08:11:44;;;;;;;20.50;6.00;;;;;;;18.43;67.17;101251.31;5064391;28;20411;-63
2021/07/07 08:14:10;;;;;;;21.58;5.72;;;;;;;18.47;65.52;101262.84;5064725;28;20025;-62
2021/07/07 08:16:35;;;;;;;23.05;6.10;;;;;;;18.53;66.30;101256.47;5064604;28;20535;-63
2021/07/07 08:19:00;;;;;;;20.20;5.35;;;;;;;18.74;64.72;101257.78;5066174;28;20028;-63
2021/07/07 08:21:26;;;;;;;21.77;6.00;;;;;;;19.00;66.65;101262.53;5067714;28;20021;-63
2021/07/07 08:23:51;;;;;;;21.50;5.93;;;;;;;19.22;63.81;101262.91;5064743;28;20116;-63
2021/07/07 08:26:16;;;;;;;23.52;5.95;;;;;;;19.38;64.31;101268.75;5064860;28;20156;-64
2021/07/07 08:28:42;;;;;;;20.15;5.60;;;;;;;19.55;64.32;101264.75;5044906;28;20049;-66
2021/07/07 08:31:07;;;;;;;20.13;5.40;;;;;;;19.83;62.41;101265.81;5045635;28;20033;-64
2021/07/07 08:33:33;;;;;;;20.52;5.68;;;;;;;19.89;64.16;101262.06;5063463;28;20029;-66
2021/07/07 08:35:58;;;;;;;24.45;5.97;;;;;;;20.13;61.85;101260.50;5066639;28;20064;-64
2021/07/07 08:38:24;;;;;;;21.23;6.13;;;;;;;20.48;62.95;101258.56;5049371;28;20028;-63
2021/07/07 08:40:49;;;;;;;22.60;5.90;;;;;;;20.42;58.96;101277.56;5067477;28;20375;-64
2021/07/07 08:43:14;;;;;;;21.35;5.85;;;;;;;20.19;60.54;101270.19;5062974;28;20045;-64
2021/07/07 08:45:40;;;;;;;21.67;6.05;;;;;;;19.98;61.50;101274.34;5064559;28;20036;-64
2021/07/07 08:48:05;;;;;;;22.17;6.10;;;;;;;19.82;60.38;101277.47;5064827;28;20020;-62
2021/07/07 08:50:36;;;;;;;21.35;5.70;;;;;;;19.86;62.86;101286.28;5063976;28;20021;-64
2021/07/07 08:53:05;;;;;;;21.70;5.75;;;;;;;20.03;60.82;101284.03;5047213;28;20025;-63
2021/07/07 08:55:31;;;;;;;21.40;5.25;;;;;;;20.16;59.74;101284.56;5064896;28;20025;-64
2021/07/07 08:57:58;;;;;;;20.48;5.40;;;;;;;20.18;59.03;101288.09;5063395;28;20070;-64
2021/07/07 09:00:36;;;;;;;21.80;5.55;;;;;;;20.32;59.78;101285.00;5063730;28;20464;-65
2021/07/07 09:03:01;;;;;;;21.48;5.60;;;;;;;20.46;59.64;101289.97;5071300;28;20029;-69
2021/07/07 09:05:27;;;;;;;19.10;5.40;;;;;;;20.52;56.45;101286.22;5066132;28;20094;-64
2021/07/07 09:07:53;;;;;;;22.40;5.15;;;;;;;20.55;57.71;101287.00;5061711;28;20028;-68
2021/07/07 09:10:27;;;;;;;19.90;5.28;;;;;;;20.62;56.19;101308.28;5065686;28;20579;-64
2021/07/07 09:12:52;;;;;;;21.27;5.40;;;;;;;20.66;58.00;101288.47;5066692;28;20074;-67
2021/07/07 09:15:18;;;;;;;18.40;5.20;;;;;;;20.77;55.71;101302.50;5070286;28;20104;-67
2021/07/07 09:17:50;;;;;;;19.38;5.10;;;;;;;20.63;53.88;101305.53;5067593;28;20048;-70
2021/07/07 09:20:40;;;;;;;20.15;5.30;;;;;;;20.51;55.85;101312.16;5045437;28;20075;-66
2021/07/07 09:23:31;;;;;;;19.67;5.47;;;;;;;20.77;55.37;101307.00;5041887;28;20062;-70
2021/07/07 09:26:04;;;;;;;21.00;5.10;;;;;;;20.72;53.91;101310.69;5063027;28;20395;-69
2021/07/07 09:28:31;;;;;;;19.90;5.40;;;;;;;20.73;54.14;101311.56;5066127;28;20554;-70
2021/07/07 09:31:04;;;;;;;19.38;5.10;;;;;;;20.89;54.59;101318.22;5060768;28;20495;-61
2021/07/07 09:33:39;;;;;;;18.38;5.10;;;;;;;20.79;56.10;101316.72;5066511;28;20550;-61
2021/07/07 09:36:19;;;;;;;22.50;5.68;;;;;;;20.87;55.14;101316.53;5057474;28;20031;-61
2021/07/07 09:38:46;;;;;;;19.05;5.20;;;;;;;20.84;55.53;101322.88;5060186;28;20029;-60
2021/07/07 09:41:12;;;;;;;20.42;5.30;;;;;;;20.92;55.95;101327.13;5059383;28;20521;-61
2021/07/07 09:43:56;;;;;;;20.55;5.13;;;;;;;21.06;56.00;101338.31;5064660;28;20453;-60
2021/07/07 09:46:22;;;;;;;19.02;5.07;;;;;;;20.76;54.31;101337.47;5064097;28;20150;-61
2021/07/07 09:48:49;;;;;;;16.30;4.88;;;;;;;20.62;54.46;101341.41;5069816;28;20016;-63
2021/07/07 09:51:16;;;;;;;19.65;5.13;;;;;;;20.50;55.98;101347.13;5065383;28;20405;-61
2021/07/07 09:53:41;;;;;;;17.67;5.10;;;;;;;20.48;56.53;101341.81;5064705;28;20033;-63
2021/07/07 09:56:06;;;;;;;19.88;4.97;;;;;;;20.49;56.26;101348.03;5044924;28;20510;-63
2021/07/07 09:58:32;;;;;;;16.25;4.70;;;;;;;20.35;55.34;101346.63;5067797;28;20068;-63
2021/07/07 10:00:57;;;;;;;18.45;4.75;;;;;;;20.19;56.27;101359.59;5069507;28;20028;-65
2021/07/07 10:03:23;;;;;;;20.23;5.07;;;;;;;20.31;56.22;101377.16;5061599;28;20021;-64
2021/07/07 10:05:50;;;;;;;17.80;5.10;;;;;;;20.57;54.87;101369.31;5069331;28;20033;-64
2021/07/07 10:08:18;;;;;;;20.65;5.18;;;;;;;21.24;54.47;101355.66;5063895;28;20036;-62
2021/07/07 10:10:44;;;;;;;19.08;5.00;;;;;;;21.90;53.80;101350.78;5067248;28;20498;-60
2021/07/07 10:13:13;;;;;;;19.30;4.85;;;;;;;22.31;50.36;101343.94;5066412;28;20834;-60
2021/07/07 10:15:38;;;;;;;18.13;4.70;;;;;;;21.72;51.88;101346.03;5066582;28;20454;-60
2021/07/07 10:18:06;;;;;;;17.83;5.20;;;;;;;21.21;54.35;101356.63;5065667;28;20025;-61
2021/07/07 10:20:32;;;;;;;19.25;5.28;;;;;;;21.00;54.52;101359.97;5064496;28;20025;-61
2021/07/07 10:23:00;;;;;;;19.13;5.00;;;;;;;20.91;55.25;101369.19;5065686;28;20479;-61
2021/07/07 10:25:28;;;;;;;18.20;5.15;;;;;;;21.00;55.52;101373.41;5068291;28;20058;-61
2021/07/07 10:27:55;;;;;;;19.70;5.47;;;;;;;21.00;55.27;101378.78;5067023;28;20438;-61
2021/07/07 10:30:22;;;;;;;20.60;5.20;;;;;;;21.45;54.31;101366.63;5069216;28;20095;-62
2021/07/07 10:33:07;;;;;;;20.98;5.35;;;;;;;22.50;52.21;101377.41;5064406;28;20029;-62
2021/07/07 10:35:32;;;;;;;20.80;4.97;;;;;;;24.85;45.14;101382.00;5063235;28;20028;-62
2021/07/07 10:37:57;;;;;;;18.92;4.75;;;;;;;24.96;43.94;101359.88;5068542;28;20376;-62
2021/07/07 10:40:28;;;;;;;18.67;4.85;;;;;;;25.75;43.20;101375.84;5046962;28;20442;-62
2021/07/07 10:42:54;;;;;;;17.25;4.70;;;;;;;25.73;40.73;101372.34;5045781;28;20071;-62
2021/07/07 10:45:31;;;;;;;16.88;4.28;;;;;;;26.41;40.61;101382.38;5064453;28;20087;-62
2021/07/07 10:48:32;;;;;;;17.17;4.50;;;;;;;26.57;41.19;101379.69;5065435;28;20108;-62
2021/07/07 10:51:24;;;;;;;19.80;4.53;;;;;;;26.65;39.25;101382.00;5065574;28;20075;-63
2021/07/07 10:53:50;;;;;;;;;;;;;;;26.54;40.01;101390.72;5051381;28;20491;-64
2021/07/07 10:56:15;;;;;;;16.70;4.55;;;;;;;26.24;41.23;101374.25;5070181;28;20006;-64
2021/07/07 10:58:42;;;;;;;16.50;4.63;;;;;;;26.05;40.09;101383.38;5067741;28;20108;-64
2021/07/07 11:01:29;;;;;;;19.42;5.13;;;;;;;25.72;42.73;101384.13;5048202;28;20048;-64
2021/07/07 11:04:02;;;;;;;19.92;4.72;;;;;;;26.43;39.96;101388.59;5069143;28;20119;-63
2021/07/07 11:06:30;;;;;;;17.35;4.40;;;;;;;26.83;39.65;101385.56;5043978;28;20021;-64
2021/07/07 11:09:05;;;;;;;15.18;4.20;;;;;;;27.83;37.02;101392.53;5053596;28;20016;-64
2021/07/07 11:11:30;;;;;;;16.10;4.20;;;;;;;27.16;35.07;101390.06;5066078;28;20099;-64